createdAt,value
2022-12-22T00:02:39.578Z,100456.97
2022-12-22T00:05:33.241Z,100445.75
2022-12-22T00:08:20.276Z,100442.63
2022-12-22T00:11:06.858Z,100445.75
2022-12-22T00:13:53.354Z,100447.28
2022-12-22T00:16:38.987Z,100447.75
2022-12-22T00:19:32.115Z,100445.09
2022-12-22T00:22:20.994Z,100432.00
2022-12-22T00:25:08.289Z,100430.50
2022-12-22T00:27:54.255Z,100425.50
2022-12-22T00:30:40.003Z,100422.13
2022-12-22T00:33:25.721Z,100423.28
2022-12-22T00:36:11.355Z,100420.53
2022-12-22T00:38:57.142Z,100423.22
2022-12-22T00:41:44.439Z,100417.03
2022-12-22T00:44:30.362Z,100410.50
2022-12-22T00:47:15.965Z,100398.09
2022-12-22T00:50:06.016Z,100392.69
2022-12-22T00:52:52.377Z,100389.22
2022-12-22T00:55:43.885Z,100384.59
2022-12-22T00:58:35.408Z,100376.13
2022-12-22T01:01:21.112Z,100369.94
2022-12-22T01:04:06.972Z,100369.13
2022-12-22T01:06:54.694Z,100373.44
2022-12-22T01:09:41.218Z,100361.84
2022-12-22T01:12:33.958Z,100359.47
2022-12-22T01:15:20.852Z,100349.41
2022-12-22T01:18:06.538Z,100346.31
2022-12-22T01:20:52.045Z,100351.72
2022-12-22T01:23:37.878Z,100342.03
2022-12-22T01:26:28.440Z,100346.25
2022-12-22T01:29:14.055Z,100338.09
2022-12-22T01:32:00.958Z,100333.03
2022-12-22T01:34:46.547Z,100324.47
2022-12-22T01:37:32.124Z,100325.22
2022-12-22T01:40:17.590Z,100317.81
2022-12-22T01:43:03.646Z,100318.97
2022-12-22T01:45:52.633Z,100315.06
2022-12-22T01:48:45.166Z,100321.66
2022-12-22T01:51:33.713Z,100307.34
2022-12-22T01:54:20.281Z,100311.59
2022-12-22T01:57:07.537Z,100305.75
2022-12-22T01:59:53.417Z,100299.22
2022-12-22T02:02:41.708Z,100296.13
2022-12-22T02:05:33.432Z,100291.50
2022-12-22T02:08:34.664Z,100274.16
2022-12-22T02:11:35.754Z,100268.75
2022-12-22T02:14:37.873Z,100268.75
2022-12-22T02:17:30.571Z,100262.19
2022-12-22T02:20:46.285Z,100257.91
2022-12-22T02:23:45.396Z,100241.72
2022-12-22T02:26:45.989Z,100245.56
2022-12-22T02:29:34.259Z,100232.44
2022-12-22T02:32:20.100Z,100232.13
2022-12-22T02:35:06.124Z,100223.63
2022-12-22T02:38:01.779Z,100226.34
2022-12-22T02:40:54.510Z,100227.81
2022-12-22T02:43:57.250Z,100213.19
2022-12-22T02:46:49.943Z,100213.97
2022-12-22T02:49:41.417Z,100206.97
2022-12-22T02:52:37.214Z,100200.78
2022-12-22T02:55:25.121Z,100199.22
2022-12-22T02:58:11.201Z,100200.75
2022-12-22T03:00:58.924Z,100193.81
2022-12-22T03:03:45.153Z,100190.66
2022-12-22T03:06:30.823Z,100199.53
2022-12-22T03:09:16.762Z,100195.75
2022-12-22T03:12:02.313Z,100188.41
2022-12-22T03:14:48.123Z,100183.44
2022-12-22T03:17:35.149Z,100185.34
2022-12-22T03:20:20.929Z,100177.59
2022-12-22T03:23:06.408Z,100169.81
2022-12-22T03:25:53.023Z,100164.00
2022-12-22T03:28:22.738Z,100159.69
2022-12-22T03:30:59.955Z,100155.41
2022-12-22T03:33:30.736Z,100153.09
2022-12-22T03:35:59.700Z,100154.22
2022-12-22T03:38:28.919Z,100153.88
2022-12-22T03:40:57.456Z,100147.69
2022-12-22T03:43:43.576Z,100144.19
2022-12-22T03:46:30.643Z,100137.25
2022-12-22T03:49:13.203Z,100140.28
2022-12-22T03:51:47.670Z,100137.97
2022-12-22T03:54:17.963Z,100134.47
2022-12-22T03:56:46.699Z,100139.50
2022-12-22T03:59:16.067Z,100136.00
2022-12-22T04:01:47.064Z,100141.81
2022-12-22T04:04:20.809Z,100128.66
2022-12-22T04:06:49.567Z,100133.28
2022-12-22T04:09:17.863Z,100131.38
2022-12-22T04:12:03.939Z,100133.72
2022-12-22T04:14:34.579Z,100127.16
2022-12-22T04:17:03.731Z,100122.50
2022-12-22T04:19:34.668Z,100117.53
2022-12-22T04:22:03.137Z,100115.66
2022-12-22T04:24:31.612Z,100121.44
2022-12-22T04:26:59.913Z,100115.25
2022-12-22T04:29:28.292Z,100116.38
2022-12-22T04:31:56.650Z,100109.47
2022-12-22T04:34:24.987Z,100121.47
2022-12-22T04:36:54.583Z,100108.38
2022-12-22T04:39:22.866Z,100113.00
2022-12-22T04:41:51.131Z,100106.44
2022-12-22T04:44:19.467Z,100109.53
2022-12-22T04:46:47.708Z,100114.16
2022-12-22T04:49:16.021Z,100110.25
2022-12-22T04:51:44.331Z,100104.06
2022-12-22T04:54:14.340Z,100104.06
2022-12-22T04:56:42.612Z,100109.47
2022-12-22T04:59:11.035Z,100111.03
2022-12-22T05:01:39.647Z,100112.53
2022-12-22T05:04:08.004Z,100104.06
2022-12-22T05:06:36.264Z,100114.16
2022-12-22T05:09:04.893Z,100115.69
2022-12-22T05:11:34.670Z,100113.00
2022-12-22T05:14:07.206Z,100111.84
2022-12-22T05:16:36.037Z,100104.88
2022-12-22T05:19:04.505Z,100099.50
2022-12-22T05:21:32.821Z,100104.88
2022-12-22T05:24:01.146Z,100115.69
2022-12-22T05:26:29.508Z,100113.78
2022-12-22T05:28:59.182Z,100118.78
2022-12-22T05:31:28.050Z,100115.25
2022-12-22T05:33:56.951Z,100100.88
2022-12-22T05:36:25.262Z,100107.84
2022-12-22T05:38:53.671Z,100110.97
2022-12-22T05:41:21.964Z,100112.19
2022-12-22T05:43:50.224Z,100111.81
2022-12-22T05:46:20.214Z,100114.19
2022-12-22T05:48:48.763Z,100121.94
2022-12-22T05:51:17.138Z,100116.19
2022-12-22T05:53:45.503Z,100116.56
2022-12-22T05:56:13.799Z,100120.06
2022-12-22T05:58:42.130Z,100120.91
2022-12-22T06:01:10.516Z,100116.63
2022-12-22T06:03:40.278Z,100118.19
2022-12-22T06:06:08.954Z,100118.19
2022-12-22T06:08:37.257Z,100118.97
2022-12-22T06:11:05.860Z,100124.38
2022-12-22T06:13:34.310Z,100118.19
2022-12-22T06:16:02.923Z,100123.59
2022-12-22T06:18:31.281Z,100124.38
2022-12-22T06:21:00.988Z,100133.28
2022-12-22T06:23:29.340Z,100142.94
2022-12-22T06:25:58.193Z,100142.94
2022-12-22T06:28:27.179Z,100159.16
2022-12-22T06:30:56.189Z,100166.88
2022-12-22T06:33:24.767Z,100170.72
2022-12-22T06:35:58.731Z,100168.34
2022-12-22T06:38:29.643Z,100167.56
2022-12-22T06:40:58.241Z,100154.03
2022-12-22T06:43:25.905Z,100167.56
2022-12-22T06:45:54.678Z,100168.72
2022-12-22T06:48:23.145Z,100184.56
2022-12-22T06:50:51.881Z,100204.22
2022-12-22T06:53:20.159Z,100209.25
2022-12-22T06:55:49.778Z,100212.28
2022-12-22T06:58:18.076Z,100219.19
2022-12-22T07:00:48.675Z,100225.38
2022-12-22T07:03:17.605Z,100232.72
2022-12-22T07:05:46.079Z,100250.06
2022-12-22T07:08:14.411Z,100253.91
2022-12-22T07:11:00.988Z,100260.47
2022-12-22T07:13:34.077Z,100261.97
2022-12-22T07:16:03.107Z,100268.94
2022-12-22T07:18:33.446Z,100277.06
2022-12-22T07:21:03.734Z,100270.50
2022-12-22T07:23:32.764Z,100279.41
2022-12-22T07:26:01.585Z,100280.16
2022-12-22T07:28:33.618Z,100290.25
2022-12-22T07:31:02.365Z,100290.25
2022-12-22T07:33:31.221Z,100293.38
2022-12-22T07:36:09.957Z,100296.53
2022-12-22T07:38:40.139Z,100299.22
2022-12-22T07:41:32.196Z,100303.41
2022-12-22T07:44:01.838Z,100311.53
2022-12-22T07:46:32.690Z,100308.03
2022-12-22T07:49:18.746Z,100321.19
2022-12-22T07:51:47.275Z,100330.53
2022-12-22T07:54:17.427Z,100337.84
2022-12-22T07:56:47.888Z,100330.91
2022-12-22T07:59:18.226Z,100331.59
2022-12-22T08:01:47.142Z,100348.16
2022-12-22T08:04:16.450Z,100356.28
2022-12-22T08:06:44.964Z,100362.47
2022-12-22T08:09:21.512Z,100360.53
2022-12-22T08:11:51.272Z,100374.41
2022-12-22T08:14:20.966Z,100372.06
2022-12-22T08:16:49.384Z,100377.13
2022-12-22T08:19:17.844Z,100373.63
2022-12-22T08:21:52.536Z,100384.88
2022-12-22T08:24:22.760Z,100384.88
2022-12-22T08:26:54.536Z,100389.91
2022-12-22T08:29:29.198Z,100396.09
2022-12-22T08:31:57.808Z,100404.56
2022-12-22T08:34:26.243Z,100406.84
2022-12-22T08:36:58.050Z,100419.94
2022-12-22T08:39:43.636Z,100428.41
2022-12-22T08:42:15.493Z,100436.09
2022-12-22T08:44:46.017Z,100431.84
2022-12-22T08:47:17.066Z,100436.53
2022-12-22T08:49:45.818Z,100440.00
2022-12-22T08:52:18.913Z,100440.78
2022-12-22T08:54:47.625Z,100451.59
2022-12-22T08:57:16.035Z,100457.44
2022-12-22T08:59:48.206Z,100471.38
2022-12-22T09:02:16.684Z,100467.53
2022-12-22T09:04:45.073Z,100468.78
2022-12-22T09:07:13.375Z,100471.13
2022-12-22T09:09:41.947Z,100473.44
2022-12-22T09:12:10.260Z,100476.91
2022-12-22T09:14:38.707Z,100480.03
2022-12-22T09:17:08.560Z,100492.44
2022-12-22T09:19:37.418Z,100502.13
2022-12-22T09:22:05.767Z,100520.28
2022-12-22T09:24:34.127Z,100535.25
2022-12-22T09:27:03.515Z,100533.69
2022-12-22T09:29:32.070Z,100540.63
2022-12-22T09:32:00.386Z,100548.63
2022-12-22T09:34:30.282Z,100544.22
2022-12-22T09:36:58.673Z,100553.47
2022-12-22T09:39:29.304Z,100551.47
2022-12-22T09:42:00.079Z,100559.59
2022-12-22T09:44:33.159Z,100565.00
2022-12-22T09:47:03.651Z,100558.03
2022-12-22T09:49:33.373Z,100565.00
2022-12-22T09:52:05.299Z,100572.41
2022-12-22T09:54:33.651Z,100554.25
2022-12-22T09:57:03.203Z,100565.16
2022-12-22T09:59:31.739Z,100572.28
2022-12-22T10:02:15.611Z,100571.63
2022-12-22T10:05:00.732Z,100596.31
2022-12-22T10:07:34.864Z,100589.69
2022-12-22T10:10:09.191Z,100594.59
2022-12-22T10:12:37.553Z,100590.69
2022-12-22T10:15:07.555Z,100587.19
2022-12-22T10:17:38.686Z,100577.94
2022-12-22T10:20:30.128Z,100589.34
2022-12-22T10:22:59.827Z,100589.84
2022-12-22T10:28:26.891Z,100579.66
2022-12-22T10:31:20.733Z,100585.50
2022-12-22T10:33:51.371Z,100593.31
2022-12-22T10:36:26.070Z,100594.91
2022-12-22T10:39:02.873Z,100607.88
2022-12-22T10:41:36.472Z,100605.28
2022-12-22T10:44:10.595Z,100611.63
2022-12-22T10:46:43.489Z,100622.94
2022-12-22T10:49:17.919Z,100616.72
2022-12-22T10:51:50.719Z,100625.09
2022-12-22T10:54:31.993Z,100622.66
2022-12-22T10:57:07.580Z,100626.50
2022-12-22T10:59:49.190Z,100631.91
2022-12-22T11:02:35.043Z,100632.22
2022-12-22T11:05:08.065Z,100640.34
2022-12-22T11:07:40.977Z,100631.56
2022-12-22T11:10:29.995Z,100629.78
2022-12-22T11:13:26.476Z,100642.66
2022-12-22T11:16:02.818Z,100634.97
2022-12-22T11:18:53.365Z,100642.31
2022-12-22T11:21:29.883Z,100650.78
2022-12-22T11:24:13.410Z,100672.53
2022-12-22T11:26:52.454Z,100666.81
2022-12-22T11:29:44.135Z,100668.81
2022-12-22T11:32:37.253Z,100671.09
2022-12-22T11:35:15.432Z,100660.94
2022-12-22T11:37:50.430Z,100664.00
2022-12-22T11:40:33.330Z,100661.69
2022-12-22T11:43:37.483Z,100677.34
2022-12-22T11:46:21.287Z,100673.19
2022-12-22T11:49:33.389Z,100662.88
2022-12-22T11:52:28.146Z,100662.38
2022-12-22T11:55:20.746Z,100666.66
2022-12-22T11:58:03.150Z,100667.16
2022-12-22T12:01:12.582Z,100660.69
2022-12-22T12:04:22.156Z,100669.31
2022-12-22T12:07:23.577Z,100665.72
2022-12-22T12:10:05.729Z,100667.50
2022-12-22T12:12:49.723Z,100655.81
2022-12-22T12:15:29.360Z,100660.81
2022-12-22T12:18:30.200Z,100673.19
2022-12-22T12:21:13.994Z,100671.72
2022-12-22T12:24:06.795Z,100665.53
2022-12-22T12:26:45.657Z,100680.59
2022-12-22T12:29:20.442Z,100670.94
2022-12-22T12:31:56.317Z,100664.75
2022-12-22T12:34:25.723Z,100669.34
2022-12-22T12:36:59.773Z,100664.28
2022-12-22T12:39:36.785Z,100658.81
2022-12-22T12:42:27.352Z,100664.94
2022-12-22T12:44:56.451Z,100666.84
2022-12-22T12:47:29.136Z,100657.69
2022-12-22T12:50:32.878Z,100659.66
2022-12-22T12:53:11.061Z,100655.91
2022-12-22T12:56:04.242Z,100644.03
2022-12-22T12:59:02.909Z,100646.44
2022-12-22T13:02:00.529Z,100653.75
2022-12-22T13:05:26.477Z,100647.91
2022-12-22T13:08:20.180Z,100646.38
2022-12-22T13:11:44.674Z,100647.09
2022-12-22T13:14:09.297Z,100649.31
2022-12-22T13:16:40.576Z,100645.38
2022-12-22T13:19:27.654Z,100644.16
2022-12-22T13:21:58.058Z,100646.06
2022-12-22T13:24:31.577Z,100643.72
2022-12-22T13:27:06.869Z,100644.88
2022-12-22T13:29:44.735Z,100650.97
2022-12-22T13:32:27.320Z,100655.16
2022-12-22T13:37:54.920Z,100657.47
2022-12-22T13:40:28.302Z,100649.69
2022-12-22T13:43:01.568Z,100650.84
2022-12-22T13:45:35.344Z,100652.75
2022-12-22T13:48:10.501Z,100643.50
2022-12-22T13:50:44.199Z,100651.28
2022-12-22T13:53:42.076Z,100642.00
2022-12-22T13:56:10.178Z,100642.00
2022-12-22T13:58:41.252Z,100635.81
2022-12-22T14:01:18.152Z,100637.34
2022-12-22T14:04:01.696Z,100636.56
2022-12-22T14:06:33.872Z,100641.94
2022-12-22T14:09:18.244Z,100640.38
2022-12-22T14:11:53.053Z,100640.69
2022-12-22T14:14:26.835Z,100646.47
2022-12-22T14:16:59.569Z,100648.78
2022-12-22T14:19:33.297Z,100651.81
2022-12-22T14:22:08.415Z,100648.66
2022-12-22T14:24:44.402Z,100647.44
2022-12-22T14:27:25.364Z,100640.06
2022-12-22T14:29:54.034Z,100639.19
2022-12-22T14:32:40.629Z,100635.28
2022-12-22T14:35:31.291Z,100629.00
2022-12-22T14:38:29.569Z,100625.41
2022-12-22T14:40:58.174Z,100615.78
2022-12-22T14:43:33.299Z,100611.84
2022-12-22T14:46:09.182Z,100619.16
2022-12-22T14:48:41.445Z,100613.31
2022-12-22T14:51:09.950Z,100606.34
2022-12-22T14:53:48.083Z,100596.25
2022-12-22T14:56:18.558Z,100600.09
2022-12-22T14:58:50.021Z,100594.69
2022-12-22T15:01:23.462Z,100594.69
2022-12-22T15:04:09.616Z,100583.44
2022-12-22T15:06:41.351Z,100586.16
2022-12-22T15:12:19.457Z,100573.78
2022-12-22T15:14:50.102Z,100576.03
2022-12-22T15:17:23.887Z,100578.31
2022-12-22T15:19:52.950Z,100574.28
2022-12-22T15:22:21.406Z,100577.28
2022-12-22T15:24:49.718Z,100573.00
2022-12-22T15:27:18.010Z,100565.97
2022-12-22T15:29:46.325Z,100561.25
2022-12-22T15:32:16.398Z,100563.19
2022-12-22T15:34:45.327Z,100552.72
2022-12-22T15:37:14.272Z,100563.03
2022-12-22T15:39:42.554Z,100555.25
2022-12-22T15:42:10.875Z,100556.72
2022-12-22T15:44:39.531Z,100550.91
2022-12-22T15:47:10.996Z,100548.91
2022-12-22T15:49:41.178Z,100542.63
2022-12-22T15:52:13.291Z,100546.44
2022-12-22T15:54:41.661Z,100544.09
2022-12-22T15:57:14.629Z,100539.47
2022-12-22T15:59:42.937Z,100533.31
2022-12-22T16:02:13.644Z,100528.28
2022-12-22T16:04:43.658Z,100533.31
2022-12-22T16:07:13.532Z,100534.09
2022-12-22T16:09:44.450Z,100523.22
2022-12-22T16:12:18.046Z,100511.97
2022-12-22T16:14:51.115Z,100513.88
2022-12-22T16:17:21.767Z,100518.50
2022-12-22T16:19:51.544Z,100513.09
2022-12-22T16:22:27.847Z,100511.19
2022-12-22T16:24:56.266Z,100506.25
2022-12-22T16:27:24.696Z,100501.69
2022-12-22T16:29:55.031Z,100494.81
2022-12-22T16:32:26.752Z,100480.97
2022-12-22T16:35:19.829Z,100479.41
2022-12-22T16:37:49.975Z,100483.41
2022-12-22T16:40:19.936Z,100476.50
2022-12-22T16:45:46.679Z,100453.44
2022-12-22T16:48:20.887Z,100450.00
2022-12-22T16:50:50.742Z,100442.00
2022-12-22T16:53:19.214Z,100452.88
2022-12-22T16:55:47.519Z,100451.81
2022-12-22T16:58:15.789Z,100443.00
2022-12-22T17:00:46.417Z,100453.09
2022-12-22T17:03:17.517Z,100445.06
2022-12-22T17:05:46.887Z,100441.66
2022-12-22T17:08:24.528Z,100446.69
2022-12-22T17:10:55.170Z,100433.28
2022-12-22T17:13:24.132Z,100440.66
2022-12-22T17:15:52.838Z,100434.13
2022-12-22T17:18:23.725Z,100428.78
2022-12-22T17:20:56.490Z,100435.41
2022-12-22T17:23:33.776Z,100418.03
2022-12-22T17:26:04.918Z,100410.38
2022-12-22T17:28:34.659Z,100407.28
2022-12-22T17:31:03.348Z,100397.25
2022-12-22T17:33:32.403Z,100395.44
2022-12-22T17:36:02.398Z,100399.34
2022-12-22T17:38:32.143Z,100398.97
2022-12-22T17:41:01.685Z,100392.44
2022-12-22T17:43:29.952Z,100382.84
2022-12-22T17:45:58.233Z,100384.03
2022-12-22T17:48:26.515Z,100379.03
2022-12-22T17:50:54.838Z,100375.97
2022-12-22T17:53:23.802Z,100368.28
2022-12-22T17:56:09.739Z,100369.53
2022-12-22T17:58:38.188Z,100373.78
2022-12-22T18:01:06.753Z,100369.13
2022-12-22T18:03:35.127Z,100369.56
2022-12-22T18:06:03.659Z,100372.69
2022-12-22T18:08:32.066Z,100366.47
2022-12-22T18:11:03.419Z,100367.72
2022-12-22T18:13:31.794Z,100353.06
2022-12-22T18:16:00.266Z,100350.75
2022-12-22T18:18:28.897Z,100345.00
2022-12-22T18:21:06.995Z,100343.06
2022-12-22T18:23:37.971Z,100342.34
2022-12-22T18:26:09.769Z,100331.13
2022-12-22T18:28:38.128Z,100345.41
2022-12-22T18:31:06.907Z,100342.75
2022-12-22T18:33:35.255Z,100343.97
2022-12-22T18:36:03.947Z,100335.84
2022-12-22T18:38:36.096Z,100337.41
2022-12-22T18:41:04.561Z,100332.41
2022-12-22T18:43:34.324Z,100330.16
2022-12-22T18:46:02.651Z,100332.09
2022-12-22T18:48:30.911Z,100331.75
2022-12-22T18:50:59.269Z,100332.53
2022-12-22T18:53:31.552Z,100330.25
2022-12-22T18:56:00.833Z,100329.13
2022-12-22T18:58:29.219Z,100326.81
2022-12-22T19:00:59.198Z,100328.81
2022-12-22T19:03:30.206Z,100328.44
2022-12-22T19:05:58.668Z,100335.00
2022-12-22T19:08:31.420Z,100333.09
2022-12-22T19:11:01.882Z,100325.78
2022-12-22T19:13:35.429Z,100325.06
2022-12-22T19:16:06.727Z,100319.28
2022-12-22T19:18:35.090Z,100325.13
2022-12-22T19:21:03.350Z,100311.22
2022-12-22T19:23:31.682Z,100305.06
2022-12-22T19:26:08.429Z,100310.91
2022-12-22T19:28:41.326Z,100302.03
2022-12-22T19:31:22.117Z,100305.16
2022-12-22T19:33:51.381Z,100309.09
2022-12-22T19:36:25.442Z,100299.03
2022-12-22T19:39:03.496Z,100293.22
2022-12-22T19:41:42.079Z,100299.41
2022-12-22T19:44:20.668Z,100300.97
2022-12-22T19:46:51.169Z,100309.09
2022-12-22T19:49:22.485Z,100307.97
2022-12-22T19:51:51.372Z,100306.84
2022-12-22T19:54:20.585Z,100306.38
2022-12-22T19:56:52.801Z,100312.94
2022-12-22T19:59:33.963Z,100303.69
2022-12-22T20:02:26.639Z,100315.28
2022-12-22T20:04:55.889Z,100306.00
2022-12-22T20:07:27.785Z,100303.66
2022-12-22T20:09:56.277Z,100308.31
2022-12-22T20:12:29.733Z,100308.63
2022-12-22T20:14:58.491Z,100307.88
2022-12-22T20:17:28.251Z,100294.34
2022-12-22T20:19:56.626Z,100312.16
2022-12-22T20:22:25.308Z,100303.22
2022-12-22T20:25:26.024Z,100309.44
2022-12-22T20:27:56.262Z,100317.56
2022-12-22T20:30:29.166Z,100320.28
2022-12-22T20:32:59.011Z,100305.94
2022-12-22T20:35:27.410Z,100305.16
2022-12-22T20:37:55.746Z,100298.19
2022-12-22T20:40:26.586Z,100300.53
2022-12-22T20:42:55.395Z,100297.47
2022-12-22T20:45:23.947Z,100292.06
2022-12-22T20:47:52.929Z,100291.28
2022-12-22T20:50:25.816Z,100296.69
2022-12-22T20:52:55.444Z,100294.41
2022-12-22T20:55:27.125Z,100292.84
2022-12-22T20:57:56.278Z,100300.59
2022-12-22T21:00:28.416Z,100293.63
2022-12-22T21:02:56.862Z,100289.78
2022-12-22T21:05:26.652Z,100295.19
2022-12-22T21:07:55.145Z,100302.53
2022-12-22T21:10:26.550Z,100293.22
2022-12-22T21:12:55.078Z,100289.00
2022-12-22T21:15:25.670Z,100284.34
2022-12-22T21:17:58.236Z,100285.09
2022-12-22T21:20:31.504Z,100296.72
2022-12-22T21:22:59.847Z,100292.47
2022-12-22T21:25:28.484Z,100295.19
2022-12-22T21:27:57.736Z,100294.41
2022-12-22T21:30:28.914Z,100303.31
2022-12-22T21:32:57.916Z,100299.81
2022-12-22T21:35:32.641Z,100299.81
2022-12-22T21:38:01.163Z,100296.34
2022-12-22T21:40:32.490Z,100301.75
2022-12-22T21:43:01.066Z,100292.06
2022-12-22T21:45:31.961Z,100293.63
2022-12-22T21:48:02.146Z,100294.78
2022-12-22T21:50:34.517Z,100292.41
2022-12-22T21:53:03.400Z,100297.41
2022-12-22T21:55:34.467Z,100295.06
2022-12-22T21:58:03.097Z,100293.53
2022-12-22T22:00:33.203Z,100292.31
2022-12-22T22:03:03.594Z,100295.03
2022-12-22T22:05:36.293Z,100299.66
2022-12-22T22:08:07.755Z,100306.22
2022-12-22T22:10:39.816Z,100307.00
2022-12-22T22:13:09.262Z,100308.50
2022-12-22T22:15:38.179Z,100305.00
2022-12-22T22:18:07.729Z,100309.69
2022-12-22T22:20:37.707Z,100306.19
2022-12-22T22:23:06.021Z,100310.78
2022-12-22T22:25:34.303Z,100307.69
2022-12-22T22:28:02.598Z,100311.88
2022-12-22T22:30:31.065Z,100304.16
2022-12-22T22:32:59.485Z,100295.22
2022-12-22T22:35:28.813Z,100302.16
2022-12-22T22:37:58.473Z,100304.47
2022-12-22T22:40:26.793Z,100314.84
2022-12-22T22:42:56.852Z,100324.09
2022-12-22T22:45:25.169Z,100317.16
2022-12-22T22:47:54.227Z,100320.59
2022-12-22T22:50:24.280Z,100324.84
2022-12-22T22:52:52.641Z,100309.31
2022-12-22T22:55:22.354Z,100313.25
2022-12-22T22:57:50.871Z,100318.22
2022-12-22T23:00:21.951Z,100311.25
2022-12-22T23:02:50.397Z,100312.47
2022-12-22T23:05:22.857Z,100318.66
2022-12-22T23:07:51.673Z,100319.44
2022-12-22T23:10:21.394Z,100314.81
2022-12-22T23:12:49.844Z,100320.59
2022-12-22T23:15:18.351Z,100314.84
2022-12-22T23:17:46.736Z,100314.06
2022-12-22T23:20:15.217Z,100312.13
2022-12-22T23:22:43.560Z,100304.47
2022-12-22T23:25:11.849Z,100304.09
2022-12-22T23:27:41.561Z,100306.81
2022-12-22T23:30:11.652Z,100319.53
2022-12-22T23:32:39.952Z,100316.84
2022-12-22T23:35:08.857Z,100319.53
2022-12-22T23:37:37.211Z,100321.09
2022-12-22T23:42:57.398Z,100310.28
2022-12-22T23:45:25.825Z,100311.84
2022-12-22T23:47:54.099Z,100313.38
2022-12-22T23:50:22.898Z,100324.97
2022-12-22T23:52:52.748Z,100319.97
2022-12-22T23:55:21.907Z,100313.38
2022-12-22T23:57:51.704Z,100311.88
